sensor_id;sensor_type;location;lat;lon;timestamp;pressure;altitude;pressure_sealevel;temperature;humidity
74659;BME280;63186;51.204;6.536;2024-01-11T00:01:13;102645.81;;;-6.71;100.00
74659;BME280;63186;51.204;6.536;2024-01-11T00:03:38;102643.81;;;-6.69;100.00
74659;BME280;63186;51.204;6.536;2024-01-11T00:06:04;102651.31;;;-6.54;100.00
74659;BME280;63186;51.204;6.536;2024-01-11T00:08:29;102648.06;;;-6.31;100.00
74659;BME280;63186;51.204;6.536;2024-01-11T00:10:55;102647.81;;;-6.19;100.00
74659;BME280;63186;51.204;6.536;2024-01-11T00:13:20;102652.41;;;-6.12;100.00
74659;BME280;63186;51.204;6.536;2024-01-11T00:15:46;102651.41;;;-6.11;100.00
74659;BME280;63186;51.204;6.536;2024-01-11T00:18:11;102649.19;;;-6.15;100.00
74659;BME280;63186;51.204;6.536;2024-01-11T00:20:36;102647.56;;;-6.08;100.00
74659;BME280;63186;51.204;6.536;2024-01-11T00:23:02;102647.66;;;-6.18;100.00
74659;BME280;63186;51.204;6.536;2024-01-11T00:25:27;102650.00;;;-6.33;100.00
74659;BME280;63186;51.204;6.536;2024-01-11T00:27:53;102659.66;;;-6.40;100.00
74659;BME280;63186;51.204;6.536;2024-01-11T00:30:18;102649.31;;;-6.52;100.00
74659;BME280;63186;51.204;6.536;2024-01-11T00:32:43;102643.50;;;-6.66;100.00
74659;BME280;63186;51.204;6.536;2024-01-11T00:35:08;102646.25;;;-6.75;100.00
74659;BME280;63186;51.204;6.536;2024-01-11T00:37:34;102655.72;;;-6.81;100.00
74659;BME280;63186;51.204;6.536;2024-01-11T00:39:59;102649.72;;;-6.93;100.00
74659;BME280;63186;51.204;6.536;2024-01-11T00:42:24;102651.97;;;-6.88;100.00
74659;BME280;63186;51.204;6.536;2024-01-11T00:44:49;102653.81;;;-6.89;100.00
74659;BME280;63186;51.204;6.536;2024-01-11T00:47:15;102658.31;;;-6.89;100.00
74659;BME280;63186;51.204;6.536;2024-01-11T00:49:40;102652.25;;;-6.91;100.00
74659;BME280;63186;51.204;6.536;2024-01-11T00:52:05;102653.50;;;-6.86;100.00
74659;BME280;63186;51.204;6.536;2024-01-11T00:54:31;102660.69;;;-6.86;100.00
74659;BME280;63186;51.204;6.536;2024-01-11T00:56:56;102660.00;;;-6.88;100.00
74659;BME280;63186;51.204;6.536;2024-01-11T00:59:22;102651.41;;;-6.92;100.00
74659;BME280;63186;51.204;6.536;2024-01-11T01:01:50;102642.41;;;-6.91;100.00
74659;BME280;63186;51.204;6.536;2024-01-11T01:04:15;102654.03;;;-6.82;100.00
74659;BME280;63186;51.204;6.536;2024-01-11T01:06:41;102644.09;;;-6.90;100.00
74659;BME280;63186;51.204;6.536;2024-01-11T01:09:06;102648.38;;;-6.79;100.00
74659;BME280;63186;51.204;6.536;2024-01-11T01:11:31;102651.28;;;-6.72;100.00
74659;BME280;63186;51.204;6.536;2024-01-11T01:13:57;102640.34;;;-6.79;100.00
74659;BME280;63186;51.204;6.536;2024-01-11T01:16:22;102636.97;;;-6.81;100.00
74659;BME280;63186;51.204;6.536;2024-01-11T01:18:47;102650.78;;;-6.76;100.00
74659;BME280;63186;51.204;6.536;2024-01-11T01:21:12;102652.28;;;-6.73;100.00
74659;BME280;63186;51.204;6.536;2024-01-11T01:23:38;102650.81;;;-6.86;100.00
74659;BME280;63186;51.204;6.536;2024-01-11T01:26:03;102649.34;;;-6.98;100.00
74659;BME280;63186;51.204;6.536;2024-01-11T01:28:28;102654.16;;;-7.01;100.00
74659;BME280;63186;51.204;6.536;2024-01-11T01:30:54;102646.03;;;-7.09;100.00
74659;BME280;63186;51.204;6.536;2024-01-11T01:33:19;102642.78;;;-7.13;100.00
74659;BME280;63186;51.204;6.536;2024-01-11T01:35:44;102646.63;;;-7.16;100.00
74659;BME280;63186;51.204;6.536;2024-01-11T01:38:12;102641.69;;;-7.11;100.00
74659;BME280;63186;51.204;6.536;2024-01-11T01:40:37;102645.03;;;-7.08;100.00
74659;BME280;63186;51.204;6.536;2024-01-11T01:43:06;102654.75;;;-7.07;100.00
74659;BME280;63186;51.204;6.536;2024-01-11T01:45:32;102647.88;;;-7.10;100.00
74659;BME280;63186;51.204;6.536;2024-01-11T01:47:58;102644.94;;;-7.17;100.00
74659;BME280;63186;51.204;6.536;2024-01-11T01:50:23;102654.94;;;-7.19;100.00
74659;BME280;63186;51.204;6.536;2024-01-11T01:52:49;102640.78;;;-7.29;100.00
74659;BME280;63186;51.204;6.536;2024-01-11T01:55:16;102670.47;;;-7.22;100.00
74659;BME280;63186;51.204;6.536;2024-01-11T01:57:43;102673.13;;;-7.22;100.00
74659;BME280;63186;51.204;6.536;2024-01-11T02:00:10;102663.16;;;-7.30;100.00
74659;BME280;63186;51.204;6.536;2024-01-11T02:02:38;102683.19;;;-7.34;100.00
74659;BME280;63186;51.204;6.536;2024-01-11T02:05:04;102679.41;;;-7.41;100.00
74659;BME280;63186;51.204;6.536;2024-01-11T02:07:29;102672.94;;;-7.48;100.00
74659;BME280;63186;51.204;6.536;2024-01-11T02:09:55;102671.78;;;-7.46;100.00
74659;BME280;63186;51.204;6.536;2024-01-11T02:12:21;102659.31;;;-7.55;100.00
74659;BME280;63186;51.204;6.536;2024-01-11T02:14:46;102647.78;;;-7.55;100.00
74659;BME280;63186;51.204;6.536;2024-01-11T02:17:11;102662.41;;;-7.50;100.00
74659;BME280;63186;51.204;6.536;2024-01-11T02:19:37;102663.50;;;-7.52;100.00
74659;BME280;63186;51.204;6.536;2024-01-11T02:22:07;102663.34;;;-7.51;100.00
74659;BME280;63186;51.204;6.536;2024-01-11T02:24:33;102661.53;;;-7.50;100.00
74659;BME280;63186;51.204;6.536;2024-01-11T02:27:03;102664.91;;;-7.48;100.00
74659;BME280;63186;51.204;6.536;2024-01-11T02:29:30;102664.09;;;-7.49;100.00
74659;BME280;63186;51.204;6.536;2024-01-11T02:31:56;102660.31;;;-7.56;100.00
74659;BME280;63186;51.204;6.536;2024-01-11T02:34:27;102660.69;;;-7.51;100.00
74659;BME280;63186;51.204;6.536;2024-01-11T02:36:53;102658.47;;;-7.55;100.00
74659;BME280;63186;51.204;6.536;2024-01-11T02:39:20;102666.63;;;-7.57;100.00
74659;BME280;63186;51.204;6.536;2024-01-11T02:41:47;102660.56;;;-7.59;100.00
74659;BME280;63186;51.204;6.536;2024-01-11T02:44:14;102662.41;;;-7.59;100.00
74659;BME280;63186;51.204;6.536;2024-01-11T02:46:40;102673.94;;;-7.59;100.00
74659;BME280;63186;51.204;6.536;2024-01-11T02:49:05;102670.00;;;-7.55;100.00
74659;BME280;63186;51.204;6.536;2024-01-11T02:51:30;102671.25;;;-7.49;100.00
74659;BME280;63186;51.204;6.536;2024-01-11T02:53:56;102660.56;;;-7.59;100.00
74659;BME280;63186;51.204;6.536;2024-01-11T02:56:21;102664.78;;;-7.56;100.00
74659;BME280;63186;51.204;6.536;2024-01-11T02:58:46;102674.25;;;-7.62;100.00
74659;BME280;63186;51.204;6.536;2024-01-11T03:01:11;102671.75;;;-7.73;100.00
74659;BME280;63186;51.204;6.536;2024-01-11T03:03:37;102674.56;;;-7.75;100.00
74659;BME280;63186;51.204;6.536;2024-01-11T03:06:02;102674.56;;;-7.75;100.00
74659;BME280;63186;51.204;6.536;2024-01-11T03:08:28;102662.31;;;-7.68;100.00
74659;BME280;63186;51.204;6.536;2024-01-11T03:10:54;102652.00;;;-7.62;100.00
74659;BME280;63186;51.204;6.536;2024-01-11T03:13:19;102650.72;;;-7.58;100.00
74659;BME280;63186;51.204;6.536;2024-01-11T03:15:44;102654.63;;;-7.43;100.00
74659;BME280;63186;51.204;6.536;2024-01-11T03:18:10;102654.88;;;-7.36;100.00
74659;BME280;63186;51.204;6.536;2024-01-11T03:20:35;102649.66;;;-7.38;100.00
74659;BME280;63186;51.204;6.536;2024-01-11T03:23:00;102633.09;;;-7.51;100.00
74659;BME280;63186;51.204;6.536;2024-01-11T03:25:26;102647.72;;;-7.46;100.00
74659;BME280;63186;51.204;6.536;2024-01-11T03:27:51;102655.06;;;-7.48;100.00
74659;BME280;63186;51.204;6.536;2024-01-11T03:30:17;102653.63;;;-7.42;100.00
74659;BME280;63186;51.204;6.536;2024-01-11T03:32:42;102654.63;;;-7.43;100.00
74659;BME280;63186;51.204;6.536;2024-01-11T03:35:08;102656.44;;;-7.44;100.00
74659;BME280;63186;51.204;6.536;2024-01-11T03:37:34;102661.25;;;-7.47;100.00
74659;BME280;63186;51.204;6.536;2024-01-11T03:40:00;102659.97;;;-7.43;100.00
74659;BME280;63186;51.204;6.536;2024-01-11T03:42:25;102666.44;;;-7.46;100.00
74659;BME280;63186;51.204;6.536;2024-01-11T03:44:51;102660.84;;;-7.52;100.00
74659;BME280;63186;51.204;6.536;2024-01-11T03:47:16;102661.41;;;-7.49;100.00
74659;BME280;63186;51.204;6.536;2024-01-11T03:49:41;102657.44;;;-7.45;100.00
74659;BME280;63186;51.204;6.536;2024-01-11T03:52:06;102663.03;;;-7.38;100.00
74659;BME280;63186;51.204;6.536;2024-01-11T03:54:32;102660.94;;;-7.34;100.00
74659;BME280;63186;51.204;6.536;2024-01-11T03:56:57;102669.78;;;-7.34;100.00
74659;BME280;63186;51.204;6.536;2024-01-11T03:59:22;102666.56;;;-7.38;100.00
74659;BME280;63186;51.204;6.536;2024-01-11T04:01:48;102656.06;;;-7.49;100.00
74659;BME280;63186;51.204;6.536;2024-01-11T04:04:13;102660.56;;;-7.49;100.00
74659;BME280;63186;51.204;6.536;2024-01-11T04:06:38;102661.41;;;-7.49;100.00
74659;BME280;63186;51.204;6.536;2024-01-11T04:09:04;102668.03;;;-7.53;100.00
74659;BME280;63186;51.204;6.536;2024-01-11T04:11:29;102675.19;;;-7.53;100.00
74659;BME280;63186;51.204;6.536;2024-01-11T04:13:55;102670.28;;;-7.58;100.00
74659;BME280;63186;51.204;6.536;2024-01-11T04:16:21;102671.38;;;-7.51;100.00
74659;BME280;63186;51.204;6.536;2024-01-11T04:18:46;102674.06;;;-7.51;100.00
74659;BME280;63186;51.204;6.536;2024-01-11T04:21:24;102675.63;;;-7.58;100.00
74659;BME280;63186;51.204;6.536;2024-01-11T04:23:50;102684.50;;;-7.57;100.00
74659;BME280;63186;51.204;6.536;2024-01-11T04:26:16;102695.91;;;-7.55;100.00
74659;BME280;63186;51.204;6.536;2024-01-11T04:28:42;102688.59;;;-7.63;100.00
74659;BME280;63186;51.204;6.536;2024-01-11T04:31:10;102685.09;;;-7.73;100.00
74659;BME280;63186;51.204;6.536;2024-01-11T04:33:35;102681.84;;;-7.77;100.00
74659;BME280;63186;51.204;6.536;2024-01-11T04:36:00;102688.63;;;-7.73;100.00
74659;BME280;63186;51.204;6.536;2024-01-11T04:38:26;102698.44;;;-7.63;100.00
74659;BME280;63186;51.204;6.536;2024-01-11T04:40:51;102700.84;;;-7.60;100.00
74659;BME280;63186;51.204;6.536;2024-01-11T04:43:16;102701.13;;;-7.63;100.00
74659;BME280;63186;51.204;6.536;2024-01-11T04:45:41;102690.56;;;-7.65;100.00
74659;BME280;63186;51.204;6.536;2024-01-11T04:48:07;102715.47;;;-7.55;100.00
74659;BME280;63186;51.204;6.536;2024-01-11T04:50:32;102708.28;;;-7.54;100.00
74659;BME280;63186;51.204;6.536;2024-01-11T04:52:57;102714.63;;;-7.55;100.00
74659;BME280;63186;51.204;6.536;2024-01-11T04:55:22;102702.38;;;-7.48;100.00
74659;BME280;63186;51.204;6.536;2024-01-11T04:57:48;102703.22;;;-7.48;100.00
74659;BME280;63186;51.204;6.536;2024-01-11T05:00:13;102702.38;;;-7.48;100.00
74659;BME280;63186;51.204;6.536;2024-01-11T05:02:38;102702.38;;;-7.58;100.00
74659;BME280;63186;51.204;6.536;2024-01-11T05:05:04;102702.22;;;-7.56;100.00
74659;BME280;63186;51.204;6.536;2024-01-11T05:07:29;102698.31;;;-7.62;100.00
74659;BME280;63186;51.204;6.536;2024-01-11T05:09:55;102701.56;;;-7.68;100.00
74659;BME280;63186;51.204;6.536;2024-01-11T05:12:20;102717.03;;;-7.62;100.00
74659;BME280;63186;51.204;6.536;2024-01-11T05:14:45;102720.69;;;-7.63;100.00
74659;BME280;63186;51.204;6.536;2024-01-11T05:17:10;102715.75;;;-7.58;100.00
74659;BME280;63186;51.204;6.536;2024-01-11T05:19:36;102707.72;;;-7.58;100.00
74659;BME280;63186;51.204;6.536;2024-01-11T05:22:01;102705.50;;;-7.62;100.00
74659;BME280;63186;51.204;6.536;2024-01-11T05:24:26;102710.97;;;-7.64;100.00
74659;BME280;63186;51.204;6.536;2024-01-11T05:26:51;102706.34;;;-7.72;100.00
74659;BME280;63186;51.204;6.536;2024-01-11T05:29:17;102726.91;;;-7.72;100.00
74659;BME280;63186;51.204;6.536;2024-01-11T05:31:42;102721.97;;;-7.77;100.00
74659;BME280;63186;51.204;6.536;2024-01-11T05:34:07;102737.75;;;-7.74;100.00
74659;BME280;63186;51.204;6.536;2024-01-11T05:36:34;102729.59;;;-7.82;100.00
74659;BME280;63186;51.204;6.536;2024-01-11T05:38:59;102735.63;;;-7.89;100.00
74659;BME280;63186;51.204;6.536;2024-01-11T05:41:24;102728.59;;;-7.81;100.00
74659;BME280;63186;51.204;6.536;2024-01-11T05:43:50;102725.47;;;-7.76;100.00
74659;BME280;63186;51.204;6.536;2024-01-11T05:46:15;102724.38;;;-7.74;100.00
74659;BME280;63186;51.204;6.536;2024-01-11T05:48:40;102733.66;;;-7.78;100.00
74659;BME280;63186;51.204;6.536;2024-01-11T05:51:05;102738.16;;;-7.78;100.00
74659;BME280;63186;51.204;6.536;2024-01-11T05:53:31;102732.81;;;-7.78;100.00
74659;BME280;63186;51.204;6.536;2024-01-11T05:56:00;102731.09;;;-7.70;100.00
74659;BME280;63186;51.204;6.536;2024-01-11T05:58:25;102740.41;;;-7.74;100.00
74659;BME280;63186;51.204;6.536;2024-01-11T06:00:50;102751.53;;;-7.78;100.00
74659;BME280;63186;51.204;6.536;2024-01-11T06:03:16;102749.00;;;-7.80;100.00
74659;BME280;63186;51.204;6.536;2024-01-11T06:05:41;102759.41;;;-7.67;100.00
74659;BME280;63186;51.204;6.536;2024-01-11T06:08:06;102758.84;;;-7.71;100.00
74659;BME280;63186;51.204;6.536;2024-01-11T06:10:31;102764.19;;;-7.61;100.00
74659;BME280;63186;51.204;6.536;2024-01-11T06:12:57;102771.38;;;-7.61;100.00
74659;BME280;63186;51.204;6.536;2024-01-11T06:15:22;102774.75;;;-7.59;100.00
74659;BME280;63186;51.204;6.536;2024-01-11T06:17:47;102775.88;;;-7.62;100.00
74659;BME280;63186;51.204;6.536;2024-01-11T06:20:13;102774.88;;;-7.61;100.00
74659;BME280;63186;51.204;6.536;2024-01-11T06:22:38;102776.44;;;-7.58;100.00
74659;BME280;63186;51.204;6.536;2024-01-11T06:25:03;102764.72;;;-7.57;100.00
74659;BME280;63186;51.204;6.536;2024-01-11T06:27:29;102777.69;;;-7.53;100.00
74659;BME280;63186;51.204;6.536;2024-01-11T06:29:54;102773.06;;;-7.60;100.00
74659;BME280;63186;51.204;6.536;2024-01-11T06:32:19;102765.88;;;-7.60;100.00
74659;BME280;63186;51.204;6.536;2024-01-11T06:34:45;102756.72;;;-7.77;100.00
74659;BME280;63186;51.204;6.536;2024-01-11T06:37:11;102765.19;;;-7.72;100.00
74659;BME280;63186;51.204;6.536;2024-01-11T06:39:37;102766.31;;;-7.74;100.00
74659;BME280;63186;51.204;6.536;2024-01-11T06:42:02;102755.34;;;-7.81;100.00
74659;BME280;63186;51.204;6.536;2024-01-11T06:44:28;102764.78;;;-7.86;100.00
74659;BME280;63186;51.204;6.536;2024-01-11T06:46:53;102771.94;;;-7.97;100.00
74659;BME280;63186;51.204;6.536;2024-01-11T06:49:18;102765.16;;;-8.10;100.00
74659;BME280;63186;51.204;6.536;2024-01-11T06:51:43;102761.78;;;-8.22;100.00
74659;BME280;63186;51.204;6.536;2024-01-11T06:54:09;102765.72;;;-8.26;100.00
74659;BME280;63186;51.204;6.536;2024-01-11T06:56:34;102767.00;;;-8.21;100.00
74659;BME280;63186;51.204;6.536;2024-01-11T06:59:01;102766.16;;;-8.11;100.00
74659;BME280;63186;51.204;6.536;2024-01-11T07:01:26;102770.94;;;-8.05;100.00
74659;BME280;63186;51.204;6.536;2024-01-11T07:03:51;102777.13;;;-8.05;100.00
74659;BME280;63186;51.204;6.536;2024-01-11T07:06:17;102789.06;;;-8.18;100.00
74659;BME280;63186;51.204;6.536;2024-01-11T07:08:42;102779.63;;;-8.42;100.00
74659;BME280;63186;51.204;6.536;2024-01-11T07:11:07;102773.38;;;-8.62;100.00
74659;BME280;63186;51.204;6.536;2024-01-11T07:13:33;102768.41;;;-8.76;100.00
74659;BME280;63186;51.204;6.536;2024-01-11T07:15:59;102769.72;;;-8.70;100.00
74659;BME280;63186;51.204;6.536;2024-01-11T07:18:25;102770.41;;;-8.68;100.00
74659;BME280;63186;51.204;6.536;2024-01-11T07:20:50;102792.50;;;-8.66;100.00
74659;BME280;63186;51.204;6.536;2024-01-11T07:23:16;102801.03;;;-8.72;100.00
74659;BME280;63186;51.204;6.536;2024-01-11T07:25:42;102798.25;;;-8.61;100.00
74659;BME280;63186;51.204;6.536;2024-01-11T07:28:07;102786.06;;;-8.35;100.00
74659;BME280;63186;51.204;6.536;2024-01-11T07:30:34;102787.53;;;-8.21;100.00
74659;BME280;63186;51.204;6.536;2024-01-11T07:32:59;102793.28;;;-8.16;100.00
74659;BME280;63186;51.204;6.536;2024-01-11T07:35:25;102792.03;;;-8.12;100.00
74659;BME280;63186;51.204;6.536;2024-01-11T07:37:51;102793.03;;;-8.03;100.00
74659;BME280;63186;51.204;6.536;2024-01-11T07:40:16;102802.47;;;-7.99;100.00
74659;BME280;63186;51.204;6.536;2024-01-11T07:42:42;102808.50;;;-7.97;100.00
74659;BME280;63186;51.204;6.536;2024-01-11T07:45:08;102816.53;;;-7.97;100.00
74659;BME280;63186;51.204;6.536;2024-01-11T07:47:35;102813.16;;;-7.99;100.00
74659;BME280;63186;51.204;6.536;2024-01-11T07:50:01;102821.06;;;-7.88;100.00
74659;BME280;63186;51.204;6.536;2024-01-11T07:52:26;102824.44;;;-7.67;100.00
74659;BME280;63186;51.204;6.536;2024-01-11T07:54:52;102827.53;;;-7.52;100.00
74659;BME280;63186;51.204;6.536;2024-01-11T07:57:19;102816.41;;;-7.47;100.00
74659;BME280;63186;51.204;6.536;2024-01-11T07:59:44;102823.03;;;-7.51;100.00
74659;BME280;63186;51.204;6.536;2024-01-11T08:02:09;102823.31;;;-7.54;100.00
74659;BME280;63186;51.204;6.536;2024-01-11T08:04:35;102824.16;;;-7.54;100.00
74659;BME280;63186;51.204;6.536;2024-01-11T08:07:00;102828.38;;;-7.51;100.00
74659;BME280;63186;51.204;6.536;2024-01-11T08:09:26;102821.47;;;-7.54;100.00
74659;BME280;63186;51.204;6.536;2024-01-11T08:11:51;102828.25;;;-7.50;100.00
74659;BME280;63186;51.204;6.536;2024-01-11T08:14:19;102818.09;;;-7.46;100.00
74659;BME280;63186;51.204;6.536;2024-01-11T08:16:44;102812.47;;;-7.43;100.00
74659;BME280;63186;51.204;6.536;2024-01-11T08:19:09;102805.28;;;-7.43;100.00
74659;BME280;63186;51.204;6.536;2024-01-11T08:21:35;102803.88;;;-7.47;100.00
74659;BME280;63186;51.204;6.536;2024-01-11T08:24:01;102805.72;;;-7.47;100.00
74659;BME280;63186;51.204;6.536;2024-01-11T08:26:28;102813.28;;;-7.33;100.00
74659;BME280;63186;51.204;6.536;2024-01-11T08:28:53;102812.88;;;-7.28;100.00
74659;BME280;63186;51.204;6.536;2024-01-11T08:31:18;102815.97;;;-7.23;100.00
74659;BME280;63186;51.204;6.536;2024-01-11T08:33:44;102813.00;;;-7.11;100.00
74659;BME280;63186;51.204;6.536;2024-01-11T08:36:09;102778.72;;;-7.07;100.00
74659;BME280;63186;51.204;6.536;2024-01-11T08:38:36;102804.28;;;-6.85;100.00
74659;BME280;63186;51.204;6.536;2024-01-11T08:41:01;102801.59;;;-6.75;100.00
74659;BME280;63186;51.204;6.536;2024-01-11T08:43:28;102803.69;;;-6.69;100.00
74659;BME280;63186;51.204;6.536;2024-01-11T08:45:54;102804.63;;;-6.61;100.00
74659;BME280;63186;51.204;6.536;2024-01-11T08:48:19;102806.97;;;-6.48;100.00
74659;BME280;63186;51.204;6.536;2024-01-11T08:50:45;102811.09;;;-6.08;100.00
74659;BME280;63186;51.204;6.536;2024-01-11T08:53:10;102811.94;;;-5.36;100.00
74659;BME280;63186;51.204;6.536;2024-01-11T08:55:35;102810.69;;;-3.63;100.00
74659;BME280;63186;51.204;6.536;2024-01-11T08:58:01;102815.16;;;-1.42;96.18
74659;BME280;63186;51.204;6.536;2024-01-11T09:00:26;102815.88;;;-0.07;82.89
74659;BME280;63186;51.204;6.536;2024-01-11T09:02:52;102819.38;;;0.45;77.07
74659;BME280;63186;51.204;6.536;2024-01-11T09:05:17;102828.72;;;0.85;71.79
74659;BME280;63186;51.204;6.536;2024-01-11T09:07:42;102840.78;;;1.11;70.60
74659;BME280;63186;51.204;6.536;2024-01-11T09:10:08;102837.59;;;1.28;68.43
74659;BME280;63186;51.204;6.536;2024-01-11T09:12:34;102841.53;;;1.54;66.75
74659;BME280;63186;51.204;6.536;2024-01-11T09:14:59;102851.31;;;1.83;66.27
74659;BME280;63186;51.204;6.536;2024-01-11T09:17:25;102848.78;;;1.88;64.74
74659;BME280;63186;51.204;6.536;2024-01-11T09:19:51;102835.66;;;1.50;64.46
74659;BME280;63186;51.204;6.536;2024-01-11T09:22:17;102838.50;;;1.42;66.06
74659;BME280;63186;51.204;6.536;2024-01-11T09:24:42;102847.06;;;1.39;65.24
74659;BME280;63186;51.204;6.536;2024-01-11T09:27:07;102854.38;;;1.39;65.60
74659;BME280;63186;51.204;6.536;2024-01-11T09:29:32;102852.88;;;1.36;65.76
74659;BME280;63186;51.204;6.536;2024-01-11T09:31:59;102853.25;;;1.26;65.51
74659;BME280;63186;51.204;6.536;2024-01-11T09:34:24;102857.06;;;1.11;65.34
74659;BME280;63186;51.204;6.536;2024-01-11T09:36:50;102867.97;;;0.89;65.57
74659;BME280;63186;51.204;6.536;2024-01-11T09:39:15;102862.69;;;0.81;66.47
74659;BME280;63186;51.204;6.536;2024-01-11T09:41:42;102865.19;;;0.61;66.16
74659;BME280;63186;51.204;6.536;2024-01-11T09:44:12;102868.09;;;0.81;66.25
74659;BME280;63186;51.204;6.536;2024-01-11T09:46:37;102877.13;;;0.67;67.31
74659;BME280;63186;51.204;6.536;2024-01-11T09:49:03;102867.84;;;0.54;67.25
74659;BME280;63186;51.204;6.536;2024-01-11T09:51:29;102882.09;;;0.42;66.59
74659;BME280;63186;51.204;6.536;2024-01-11T09:53:55;102895.22;;;0.45;67.20
74659;BME280;63186;51.204;6.536;2024-01-11T09:56:23;102892.06;;;0.20;68.68
74659;BME280;63186;51.204;6.536;2024-01-11T09:58:50;102891.47;;;0.24;67.66
74659;BME280;63186;51.204;6.536;2024-01-11T10:01:16;102882.91;;;0.42;67.66
74659;BME280;63186;51.204;6.536;2024-01-11T10:03:42;102882.91;;;0.78;66.98
74659;BME280;63186;51.204;6.536;2024-01-11T10:06:08;102885.16;;;1.24;66.45
74659;BME280;63186;51.204;6.536;2024-01-11T10:08:34;102888.59;;;1.68;64.59
74659;BME280;63186;51.204;6.536;2024-01-11T10:11:00;102891.72;;;1.65;63.21
74659;BME280;63186;51.204;6.536;2024-01-11T10:13:27;102891.16;;;1.48;63.00
74659;BME280;63186;51.204;6.536;2024-01-11T10:16:04;102894.53;;;1.84;63.08
74659;BME280;63186;51.204;6.536;2024-01-11T10:18:30;102888.13;;;1.99;63.88
74659;BME280;63186;51.204;6.536;2024-01-11T10:20:56;102889.84;;;2.06;63.92
74659;BME280;63186;51.204;6.536;2024-01-11T10:23:22;102893.50;;;1.85;63.68
74659;BME280;63186;51.204;6.536;2024-01-11T10:25:47;102889.06;;;1.78;64.08
74659;BME280;63186;51.204;6.536;2024-01-11T10:28:13;102889.63;;;1.67;63.67
74659;BME280;63186;51.204;6.536;2024-01-11T10:30:39;102880.78;;;1.51;64.13
74659;BME280;63186;51.204;6.536;2024-01-11T10:33:07;102867.00;;;1.25;64.97
74659;BME280;63186;51.204;6.536;2024-01-11T10:35:32;102876.72;;;1.75;64.41
74659;BME280;63186;51.204;6.536;2024-01-11T10:37:58;102875.50;;;2.32;63.63
74659;BME280;63186;51.204;6.536;2024-01-11T10:40:24;102875.72;;;2.31;62.28
74659;BME280;63186;51.204;6.536;2024-01-11T10:42:51;102879.59;;;2.08;61.25
74659;BME280;63186;51.204;6.536;2024-01-11T10:45:18;102893.56;;;1.57;62.85
74659;BME280;63186;51.204;6.536;2024-01-11T10:47:59;102894.56;;;1.00;66.40
74659;BME280;63186;51.204;6.536;2024-01-11T10:50:30;102894.16;;;1.25;65.03
74659;BME280;63186;51.204;6.536;2024-01-11T10:53:14;102893.38;;;1.09;64.77
74659;BME280;63186;51.204;6.536;2024-01-11T10:55:41;102886.78;;;0.97;66.36
74659;BME280;63186;51.204;6.536;2024-01-11T10:58:07;102904.66;;;0.85;67.22
74659;BME280;63186;51.204;6.536;2024-01-11T11:00:34;102902.81;;;0.13;68.13
74659;BME280;63186;51.204;6.536;2024-01-11T11:03:00;102900.75;;;-0.44;70.75
74659;BME280;63186;51.204;6.536;2024-01-11T11:05:28;102926.91;;;-0.74;73.12
74659;BME280;63186;51.204;6.536;2024-01-11T11:07:55;102919.38;;;-1.24;75.13
74659;BME280;63186;51.204;6.536;2024-01-11T11:10:21;102916.88;;;-1.57;75.67
74659;BME280;63186;51.204;6.536;2024-01-11T11:12:48;102913.84;;;-1.93;78.91
74659;BME280;63186;51.204;6.536;2024-01-11T11:15:14;102912.38;;;-2.04;80.72
74659;BME280;63186;51.204;6.536;2024-01-11T11:17:43;102906.66;;;-2.09;79.58
74659;BME280;63186;51.204;6.536;2024-01-11T11:20:09;102888.63;;;-2.08;80.07
74659;BME280;63186;51.204;6.536;2024-01-11T11:22:37;102883.53;;;-2.03;81.34
74659;BME280;63186;51.204;6.536;2024-01-11T11:25:24;102884.34;;;-1.95;81.52
74659;BME280;63186;51.204;6.536;2024-01-11T11:27:48;102883.00;;;-1.99;80.66
74659;BME280;63186;51.204;6.536;2024-01-11T11:30:14;102888.53;;;-1.92;81.34
74659;BME280;63186;51.204;6.536;2024-01-11T11:32:43;102883.94;;;-1.83;80.53
74659;BME280;63186;51.204;6.536;2024-01-11T11:35:08;102883.22;;;-1.77;80.81
74659;BME280;63186;51.204;6.536;2024-01-11T11:37:36;102893.19;;;-1.78;79.94
74659;BME280;63186;51.204;6.536;2024-01-11T11:40:03;102889.13;;;-1.74;79.56
74659;BME280;63186;51.204;6.536;2024-01-11T11:42:30;102882.75;;;-1.81;79.86
74659;BME280;63186;51.204;6.536;2024-01-11T11:44:55;102879.75;;;-1.86;80.11
74659;BME280;63186;51.204;6.536;2024-01-11T11:47:23;102886.31;;;-1.80;80.33
74659;BME280;63186;51.204;6.536;2024-01-11T11:50:08;102890.03;;;-1.81;80.24
74659;BME280;63186;51.204;6.536;2024-01-11T11:52:40;102896.25;;;-1.81;80.54
74659;BME280;63186;51.204;6.536;2024-01-11T11:55:07;102893.38;;;-1.79;80.41
74659;BME280;63186;51.204;6.536;2024-01-11T11:57:33;102887.59;;;-1.76;80.50
74659;BME280;63186;51.204;6.536;2024-01-11T11:59:59;102889.31;;;-1.75;78.39
74659;BME280;63186;51.204;6.536;2024-01-11T12:02:26;102888.25;;;-1.66;78.40
74659;BME280;63186;51.204;6.536;2024-01-11T12:04:52;102879.63;;;-1.61;77.82
74659;BME280;63186;51.204;6.536;2024-01-11T12:07:19;102873.84;;;-1.58;78.14
74659;BME280;63186;51.204;6.536;2024-01-11T12:09:46;102877.69;;;-1.53;78.44
74659;BME280;63186;51.204;6.536;2024-01-11T12:12:12;102878.34;;;-1.51;77.62
74659;BME280;63186;51.204;6.536;2024-01-11T12:14:38;102876.44;;;-1.42;78.11
74659;BME280;63186;51.204;6.536;2024-01-11T12:17:03;102861.19;;;-1.35;77.30
74659;BME280;63186;51.204;6.536;2024-01-11T12:19:29;102863.22;;;-1.37;75.99
74659;BME280;63186;51.204;6.536;2024-01-11T12:21:54;102860.34;;;-1.35;75.00
74659;BME280;63186;51.204;6.536;2024-01-11T12:24:20;102844.50;;;-1.39;76.39
74659;BME280;63186;51.204;6.536;2024-01-11T12:26:47;102846.13;;;-1.29;78.47
74659;BME280;63186;51.204;6.536;2024-01-11T12:29:13;102839.63;;;-1.20;77.95
74659;BME280;63186;51.204;6.536;2024-01-11T12:31:38;102845.22;;;-1.22;75.52
74659;BME280;63186;51.204;6.536;2024-01-11T12:34:04;102837.94;;;-1.21;77.11
74659;BME280;63186;51.204;6.536;2024-01-11T12:36:30;102827.31;;;-1.23;76.75
74659;BME280;63186;51.204;6.536;2024-01-11T12:38:57;102838.78;;;-1.21;76.64